createdAt,value
2022-12-27T00:08:53.660Z,9.30
2022-12-27T00:13:57.814Z,10.77
2022-12-27T00:19:00.263Z,11.27
2022-12-27T00:24:02.808Z,9.32
2022-12-27T00:29:06.607Z,12.07
2022-12-27T00:34:09.794Z,11.25
2022-12-27T00:39:12.643Z,10.48
2022-12-27T00:44:16.530Z,13.37
2022-12-27T00:49:18.955Z,8.45
2022-12-27T00:54:21.477Z,17.27
2022-12-27T00:59:25.306Z,12.35
2022-12-27T01:04:27.801Z,10.55
2022-12-27T01:09:30.255Z,14.07
2022-12-27T01:14:34.094Z,20.35
2022-12-27T01:19:36.722Z,16.63
2022-12-27T01:24:39.235Z,11.32
2022-12-27T01:29:43.054Z,13.43
2022-12-27T01:34:45.836Z,13.98
2022-12-27T01:39:48.316Z,17.48
2022-12-27T01:44:55.225Z,15.00
2022-12-27T01:50:00.584Z,21.73
2022-12-27T01:55:07.873Z,15.63
2022-12-27T02:00:12.688Z,20.10
2022-12-27T02:05:16.010Z,15.98
2022-12-27T02:10:18.961Z,13.38
2022-12-27T02:15:22.675Z,13.55
2022-12-27T02:20:25.814Z,17.63
2022-12-27T02:25:35.091Z,13.93
2022-12-27T02:30:39.291Z,21.98
2022-12-27T02:35:43.671Z,14.73
2022-12-27T02:41:04.740Z,14.88
2022-12-27T02:46:30.718Z,14.52
2022-12-27T02:51:55.445Z,12.55
2022-12-27T02:57:10.609Z,11.13
2022-12-27T03:02:40.180Z,21.33
2022-12-27T03:07:48.060Z,12.63
2022-12-27T03:13:14.238Z,12.13
2022-12-27T03:18:21.311Z,11.52
2022-12-27T03:23:41.875Z,10.23
2022-12-27T03:29:11.056Z,12.10
2022-12-27T03:34:35.698Z,10.68
2022-12-27T03:44:40.862Z,11.18
2022-12-27T03:49:46.892Z,10.67
2022-12-27T03:54:50.551Z,13.00
2022-12-27T03:59:53.394Z,16.60
2022-12-27T04:04:57.177Z,18.30
2022-12-27T04:10:17.087Z,16.83
2022-12-27T04:15:36.872Z,15.10
2022-12-27T04:20:58.489Z,13.55
2022-12-27T04:26:18.286Z,16.00
2022-12-27T04:31:38.203Z,14.32
2022-12-27T04:36:42.065Z,12.50
2022-12-27T04:42:02.030Z,14.75
2022-12-27T04:47:22.115Z,19.30
2022-12-27T04:52:43.027Z,19.00
2022-12-27T04:57:45.432Z,19.85
2022-12-27T05:02:48.137Z,19.65
2022-12-27T05:08:09.825Z,18.20
2022-12-27T05:13:30.156Z,20.33
2022-12-27T05:18:32.681Z,23.05
2022-12-27T05:23:54.105Z,23.67
2022-12-27T05:28:58.107Z,25.80
2022-12-27T05:34:00.713Z,24.27
2022-12-27T05:39:04.868Z,27.60
2022-12-27T05:44:07.832Z,42.47
2022-12-27T05:49:10.322Z,28.13
2022-12-27T05:54:14.199Z,26.88
2022-12-27T05:59:16.727Z,33.03
2022-12-27T06:04:19.205Z,30.52
2022-12-27T06:09:24.237Z,30.10
2022-12-27T06:14:26.798Z,25.88
2022-12-27T06:19:29.220Z,27.17
2022-12-27T06:24:32.919Z,33.88
2022-12-27T06:29:35.425Z,29.17
2022-12-27T06:34:37.880Z,29.02
2022-12-27T06:39:41.662Z,30.38
2022-12-27T06:44:44.125Z,30.60
2022-12-27T06:49:46.568Z,29.58
2022-12-27T06:54:50.368Z,27.40
2022-12-27T06:59:54.287Z,38.53
2022-12-27T07:04:56.774Z,31.90
2022-12-27T07:10:00.687Z,30.65
2022-12-27T07:15:03.133Z,38.55
2022-12-27T07:20:06.267Z,33.15
2022-12-27T07:25:10.402Z,33.97
2022-12-27T07:30:12.994Z,38.08
2022-12-27T07:35:15.521Z,43.90
2022-12-27T07:40:19.340Z,28.95
2022-12-27T07:45:21.818Z,32.20
2022-12-27T07:50:24.285Z,36.88
2022-12-27T07:55:28.169Z,30.23
2022-12-27T08:00:30.616Z,33.25
2022-12-27T08:05:33.063Z,29.90
2022-12-27T08:10:36.811Z,30.50
2022-12-27T08:15:39.783Z,33.20
2022-12-27T08:20:42.260Z,31.13
2022-12-27T08:25:48.964Z,29.40
2022-12-27T08:30:51.786Z,28.50
2022-12-27T08:35:55.156Z,25.17
2022-12-27T08:40:59.059Z,25.77
2022-12-27T08:46:03.015Z,16.98
2022-12-27T08:51:11.907Z,13.00
2022-12-27T08:56:16.795Z,16.17
2022-12-27T09:01:19.508Z,13.55
2022-12-27T09:06:23.043Z,13.13
2022-12-27T09:11:28.039Z,11.40
2022-12-27T09:16:30.772Z,10.45
2022-12-27T09:21:34.147Z,15.37
2022-12-27T09:26:37.991Z,12.63
2022-12-27T09:31:40.492Z,10.13
2022-12-27T09:36:43.053Z,9.55
2022-12-27T09:42:45.857Z,10.53
2022-12-27T09:47:16.197Z,10.63
2022-12-27T09:52:19.880Z,10.30
2022-12-27T09:57:25.340Z,13.48
2022-12-27T10:02:29.245Z,11.50
2022-12-27T10:07:36.788Z,11.15
2022-12-27T10:12:56.983Z,12.60
2022-12-27T10:18:11.055Z,8.80
2022-12-27T10:23:16.889Z,12.82
2022-12-27T10:28:25.568Z,14.63
2022-12-27T10:33:30.103Z,17.23
2022-12-27T10:38:33.444Z,11.27
2022-12-27T10:43:37.828Z,14.18
2022-12-27T10:49:11.321Z,12.32
2022-12-27T10:54:05.256Z,14.13
2022-12-27T10:59:13.050Z,17.00
2022-12-27T11:04:21.138Z,18.92
2022-12-27T11:09:28.822Z,16.00
2022-12-27T11:14:31.355Z,21.90
2022-12-27T11:19:35.207Z,15.30
2022-12-27T11:24:38.017Z,17.08
2022-12-27T11:29:41.389Z,19.20
2022-12-27T11:34:46.727Z,22.63
2022-12-27T11:39:51.890Z,18.67
2022-12-27T11:44:59.212Z,15.52
2022-12-27T11:50:10.863Z,15.95
2022-12-27T11:55:29.089Z,13.70
2022-12-27T12:00:37.808Z,19.70
2022-12-27T12:05:45.611Z,18.80
2022-12-27T12:10:50.588Z,15.32
2022-12-27T12:16:04.246Z,18.42
2022-12-27T12:21:19.531Z,14.50
2022-12-27T12:26:22.856Z,21.42
2022-12-27T12:31:33.119Z,18.73
2022-12-27T12:36:45.530Z,18.65
2022-12-27T12:41:57.097Z,13.07
2022-12-27T12:47:06.210Z,9.75
2022-12-27T12:52:16.355Z,16.00
2022-12-27T12:57:27.367Z,10.32
2022-12-27T13:02:38.694Z,9.50
2022-12-27T13:07:49.080Z,11.90
2022-12-27T13:12:55.560Z,9.50
2022-12-27T13:18:04.294Z,6.28
2022-12-27T13:23:11.414Z,11.65
2022-12-27T13:28:23.612Z,7.88
2022-12-27T13:33:31.674Z,7.15
2022-12-27T13:38:44.697Z,10.65
2022-12-27T13:43:52.626Z,9.60
2022-12-27T13:49:02.719Z,6.25
2022-12-27T13:54:20.287Z,10.20
2022-12-27T13:59:40.541Z,11.25
2022-12-27T14:04:54.637Z,6.75
2022-12-27T14:10:09.770Z,10.55
2022-12-27T14:15:14.751Z,6.93
2022-12-27T14:20:24.476Z,12.80
2022-12-27T14:25:45.593Z,12.38
2022-12-27T14:31:02.951Z,10.18
2022-12-27T14:36:20.273Z,12.68
2022-12-27T14:41:49.565Z,8.40
2022-12-27T14:47:14.333Z,9.50
2022-12-27T14:52:47.180Z,13.00
2022-12-27T14:57:53.794Z,9.68
2022-12-27T15:03:10.222Z,8.38
2022-12-27T15:08:28.004Z,9.90
2022-12-27T15:13:38.847Z,9.52
2022-12-27T15:18:54.717Z,10.45
2022-12-27T15:24:03.290Z,12.65
2022-12-27T15:29:17.810Z,8.25
2022-12-27T15:34:30.198Z,8.25
2022-12-27T15:39:51.236Z,13.60
2022-12-27T15:44:57.283Z,9.68
2022-12-27T15:50:14.660Z,12.57
2022-12-27T15:55:23.209Z,10.07
2022-12-27T16:00:33.673Z,12.40
2022-12-27T16:05:48.159Z,11.77
2022-12-27T16:10:52.665Z,7.95
2022-12-27T16:15:55.777Z,9.75
2022-12-27T16:20:59.271Z,6.88
2022-12-27T16:26:04.022Z,11.50
2022-12-27T16:31:07.675Z,7.22
2022-12-27T16:36:16.333Z,14.70
2022-12-27T16:41:26.969Z,6.82
2022-12-27T16:46:42.894Z,9.50
2022-12-27T16:51:55.364Z,7.68
2022-12-27T16:57:16.865Z,12.55
2022-12-27T17:02:39.883Z,8.48
2022-12-27T17:07:50.639Z,10.10
2022-12-27T17:12:54.630Z,12.20
2022-12-27T17:18:04.462Z,10.85
2022-12-27T17:23:07.002Z,16.45
2022-12-27T17:28:12.791Z,20.17
2022-12-27T17:33:22.159Z,11.80
2022-12-27T17:38:29.385Z,13.10
2022-12-27T17:43:54.603Z,12.20
2022-12-27T17:48:58.663Z,11.02
2022-12-27T17:54:18.563Z,10.38
2022-12-27T17:59:25.009Z,10.57
2022-12-27T18:04:29.603Z,10.23
2022-12-27T18:09:36.528Z,6.97
2022-12-27T18:14:38.947Z,12.15
2022-12-27T18:19:44.598Z,5.22
2022-12-27T18:24:48.071Z,8.57
2022-12-27T18:34:55.572Z,8.48
2022-12-27T18:40:00.178Z,8.35
2022-12-27T18:45:04.617Z,9.55
2022-12-27T18:50:16.533Z,7.30
2022-12-27T18:55:20.625Z,6.47
2022-12-27T19:00:25.725Z,6.25
2022-12-27T19:05:30.371Z,8.38
2022-12-27T19:10:33.549Z,12.90
2022-12-27T19:15:44.128Z,5.80
2022-12-27T19:20:51.741Z,9.57
2022-12-27T19:25:59.766Z,12.85
2022-12-27T19:31:16.215Z,5.95
2022-12-27T19:36:21.904Z,8.98
2022-12-27T19:41:26.209Z,10.05
2022-12-27T19:46:31.166Z,8.07
2022-12-27T19:51:36.205Z,7.22
2022-12-27T19:56:38.632Z,7.50
2022-12-27T20:01:41.089Z,8.95
2022-12-27T20:06:45.761Z,7.45
2022-12-27T20:11:49.537Z,5.43
2022-12-27T20:16:51.996Z,9.07
2022-12-27T20:21:55.813Z,6.43
2022-12-27T20:26:58.221Z,9.40
2022-12-27T20:32:00.693Z,5.45
2022-12-27T20:37:05.104Z,9.48
2022-12-27T20:42:07.516Z,9.45
2022-12-27T20:47:09.902Z,10.50
2022-12-27T20:52:13.649Z,15.60
2022-12-27T20:57:16.080Z,9.95
2022-12-27T21:02:18.677Z,9.65
2022-12-27T21:07:22.689Z,7.77
2022-12-27T21:12:25.389Z,6.45
2022-12-27T21:17:30.460Z,7.40
2022-12-27T21:22:34.215Z,4.43
2022-12-27T21:27:36.753Z,7.18
2022-12-27T21:32:39.131Z,4.85
2022-12-27T21:37:42.888Z,11.13
2022-12-27T21:42:45.287Z,12.30
2022-12-27T21:47:47.914Z,6.90
2022-12-27T21:52:51.677Z,10.20
2022-12-27T21:57:54.121Z,6.70
2022-12-27T22:02:56.748Z,8.43
2022-12-27T22:08:00.572Z,5.47
2022-12-27T22:13:03.034Z,5.78
2022-12-27T22:18:05.645Z,8.50
2022-12-27T22:23:09.378Z,7.43
2022-12-27T22:28:11.818Z,7.55
2022-12-27T22:33:15.242Z,10.00
2022-12-27T22:38:18.959Z,6.13
2022-12-27T22:43:21.363Z,9.20
2022-12-27T22:48:23.764Z,9.55
2022-12-27T22:53:27.468Z,6.78
2022-12-27T22:58:30.442Z,8.20
2022-12-27T23:03:32.794Z,6.07
2022-12-27T23:08:36.841Z,11.43
2022-12-27T23:13:39.561Z,13.13
2022-12-27T23:18:42.142Z,8.47
2022-12-27T23:23:46.047Z,7.67
2022-12-27T23:28:48.872Z,7.95
2022-12-27T23:33:51.730Z,11.03
2022-12-27T23:38:56.613Z,10.60
2022-12-27T23:44:00.733Z,8.70
2022-12-27T23:49:04.198Z,8.50
2022-12-27T23:59:10.363Z,6.22
